Time;durP1;ratioP1;P1;durP2;ratioP2;P2;SDS_P1;SDS_P2;PMS_P1;PMS_P2;Temp;Humidity;BMP_temperature;BMP_pressure;BME280_temperature;BME280_humidity;BME280_pressure;Samples;Min_cycle;Max_cycle;Signal;HPM_P1;HPM_P2
2021/04/17 00:01:48;;;;;;;12.23;5.65;;;;;;;;;;5054749;28;20051;-62
2021/04/17 00:04:33;;;;;;;17.50;7.03;;;;;;;;;;5054737;28;20053;-63
2021/04/17 00:07:19;;;;;;;12.73;6.32;;;;;;;;;;5054735;28;20041;-63
2021/04/17 00:10:05;;;;;;;11.50;6.20;;;;;;;;;;5054628;28;20071;-63
2021/04/17 00:12:50;;;;;;;13.85;6.97;;;;;;;;;;5067639;28;20056;-63
2021/04/17 00:15:36;;;;;;;11.52;6.05;;;;;;;;;;5054380;28;20053;-63
2021/04/17 00:18:21;;;;;;;18.48;7.32;;;;;;;;;;5054777;28;20415;-63
2021/04/17 00:21:07;;;;;;;13.57;6.45;;;;;;;;;;5054205;28;20037;-63
2021/04/17 00:23:52;;;;;;;14.73;7.70;;;;;;;;;;5054357;28;20494;-63
2021/04/17 00:26:42;;;;;;;13.43;7.43;;;;;;;;;;5034348;28;20484;-63
2021/04/17 00:29:27;;;;;;;15.93;7.15;;;;;;;;;;5034141;28;20501;-63
2021/04/17 00:32:13;;;;;;;10.50;6.95;;;;;;;;;;5034363;28;20145;-63
2021/04/17 00:34:58;;;;;;;13.77;6.95;;;;;;;;;;5040772;28;20041;-63
2021/04/17 00:37:43;;;;;;;15.23;8.25;;;;;;;;;;5054292;28;20143;-63
2021/04/17 00:40:29;;;;;;;16.38;8.75;;;;;;;;;;5053905;28;20443;-63
2021/04/17 00:43:14;;;;;;;16.75;8.20;;;;;;;;;;5054105;28;20102;-63
2021/04/17 00:46:00;;;;;;;21.27;10.10;;;;;;;;;;5053774;28;20037;-63
2021/04/17 00:48:45;;;;;;;22.38;9.85;;;;;;;;;;5053905;28;20518;-63
2021/04/17 00:51:30;;;;;;;22.70;12.95;;;;;;;;;;5053984;28;20064;-63
2021/04/17 00:54:16;;;;;;;19.55;10.10;;;;;;;;;;5053095;28;20049;-63
2021/04/17 00:57:01;;;;;;;15.77;9.45;;;;;;;;;;5053718;28;20267;-63
2021/04/17 00:59:46;;;;;;;15.52;9.95;;;;;;;;;;5053511;28;20068;-63
2021/04/17 01:02:33;;;;;;;21.60;10.85;;;;;;;;;;5053446;28;20051;-63
2021/04/17 01:05:19;;;;;;;24.83;11.32;;;;;;;;;;5053365;28;20055;-63
2021/04/17 01:08:05;;;;;;;16.58;9.82;;;;;;;;;;5066583;28;20076;-63
2021/04/17 01:10:55;;;;;;;20.05;9.80;;;;;;;;;;5066254;28;20095;-63
2021/04/17 01:13:40;;;;;;;21.45;11.57;;;;;;;;;;5066542;28;20048;-64
2021/04/17 01:16:26;;;;;;;22.50;12.80;;;;;;;;;;5065474;28;20499;-63
2021/04/17 01:19:12;;;;;;;22.52;11.82;;;;;;;;;;5053435;28;20120;-63
2021/04/17 01:21:57;;;;;;;20.80;10.80;;;;;;;;;;5052368;28;20045;-63
2021/04/17 01:24:46;;;;;;;19.85;10.90;;;;;;;;;;5053278;28;20041;-63
2021/04/17 01:27:32;;;;;;;22.88;13.48;;;;;;;;;;5058953;28;20056;-63
2021/04/17 01:30:18;;;;;;;27.70;14.90;;;;;;;;;;5066004;28;20045;-63
2021/04/17 01:33:03;;;;;;;24.15;11.70;;;;;;;;;;5052831;28;20065;-63
2021/04/17 01:35:49;;;;;;;25.67;12.75;;;;;;;;;;5052114;28;20072;-63
2021/04/17 01:38:35;;;;;;;28.38;14.15;;;;;;;;;;5052883;28;20136;-63
2021/04/17 01:41:21;;;;;;;20.42;12.45;;;;;;;;;;5052517;28;20044;-63
2021/04/17 01:44:08;;;;;;;27.40;14.88;;;;;;;;;;5051893;28;20041;-63
2021/04/17 01:46:55;;;;;;;28.38;16.30;;;;;;;;;;5051561;28;20045;-63
2021/04/17 01:49:44;;;;;;;30.90;16.58;;;;;;;;;;5065432;28;20048;-63
2021/04/17 01:52:29;;;;;;;29.02;16.50;;;;;;;;;;5065683;28;20410;-63
2021/04/17 01:55:15;;;;;;;31.23;17.88;;;;;;;;;;5051797;28;20052;-63
2021/04/17 01:58:01;;;;;;;23.48;15.40;;;;;;;;;;5063335;28;20115;-63
2021/04/17 02:00:46;;;;;;;30.65;16.35;;;;;;;;;;5051494;28;20126;-64
2021/04/17 02:03:31;;;;;;;28.25;16.38;;;;;;;;;;5052547;28;20045;-63
2021/04/17 02:06:16;;;;;;;26.00;16.70;;;;;;;;;;5052381;28;20076;-63
2021/04/17 02:09:02;;;;;;;22.50;13.90;;;;;;;;;;5052282;28;20411;-63
2021/04/17 02:11:47;;;;;;;26.10;15.20;;;;;;;;;;5052180;28;20067;-63
2021/04/17 02:14:33;;;;;;;26.10;15.80;;;;;;;;;;5051783;28;20488;-63
2021/04/17 02:17:21;;;;;;;23.48;13.48;;;;;;;;;;5052464;28;20451;-63
2021/04/17 02:20:14;;;;;;;22.25;13.68;;;;;;;;;;5051343;28;20079;-64
2021/04/17 02:22:59;;;;;;;25.13;13.07;;;;;;;;;;5051145;28;20130;-63
2021/04/17 02:25:44;;;;;;;20.05;11.95;;;;;;;;;;5051948;28;20052;-63
2021/04/17 02:28:30;;;;;;;22.42;13.15;;;;;;;;;;5052006;28;20068;-63
2021/04/17 02:31:15;;;;;;;22.00;11.88;;;;;;;;;;5051425;28;20048;-63
2021/04/17 02:34:01;;;;;;;25.48;12.00;;;;;;;;;;5052143;28;20044;-64
2021/04/17 02:36:46;;;;;;;20.00;11.23;;;;;;;;;;5052040;28;20534;-63
2021/04/17 02:39:31;;;;;;;18.55;11.23;;;;;;;;;;5051383;28;20424;-63
2021/04/17 02:42:17;;;;;;;18.50;11.02;;;;;;;;;;5052091;28;20080;-63
2021/04/17 02:45:02;;;;;;;15.88;9.88;;;;;;;;;;5050627;28;20040;-63
2021/04/17 02:47:47;;;;;;;17.70;10.23;;;;;;;;;;5051078;28;20041;-63
2021/04/17 02:50:33;;;;;;;14.27;9.80;;;;;;;;;;5051636;28;20073;-62
2021/04/17 02:53:18;;;;;;;18.15;10.65;;;;;;;;;;5051783;28;20413;-63
2021/04/17 02:56:03;;;;;;;17.88;10.15;;;;;;;;;;5051922;28;20080;-62
2021/04/17 02:58:49;;;;;;;14.38;9.32;;;;;;;;;;5051829;28;20040;-62
2021/04/17 03:01:34;;;;;;;19.38;10.68;;;;;;;;;;5031552;28;20053;-62
2021/04/17 03:04:20;;;;;;;17.58;10.93;;;;;;;;;;5031893;28;20049;-63
2021/04/17 03:07:05;;;;;;;19.38;10.27;;;;;;;;;;5031785;28;20510;-62
2021/04/17 03:09:50;;;;;;;15.68;10.65;;;;;;;;;;5034730;28;20530;-62
2021/04/17 03:12:36;;;;;;;19.73;11.05;;;;;;;;;;5051657;28;20048;-62
2021/04/17 03:15:21;;;;;;;19.90;11.82;;;;;;;;;;5051936;28;20049;-63
2021/04/17 03:18:07;;;;;;;15.80;10.52;;;;;;;;;;5051655;28;20487;-63
2021/04/17 03:20:52;;;;;;;15.82;11.10;;;;;;;;;;5051103;28;20040;-62
2021/04/17 03:23:38;;;;;;;22.30;11.45;;;;;;;;;;5051620;28;20116;-62
2021/04/17 03:26:23;;;;;;;17.88;11.10;;;;;;;;;;5052428;28;20407;-62
2021/04/17 03:29:08;;;;;;;19.50;12.43;;;;;;;;;;5055577;28;20045;-62
2021/04/17 03:31:53;;;;;;;22.77;11.05;;;;;;;;;;5055401;28;20057;-62
2021/04/17 03:34:39;;;;;;;21.65;11.40;;;;;;;;;;5055399;28;20044;-62
2021/04/17 03:37:24;;;;;;;23.25;12.68;;;;;;;;;;5040296;28;20621;-62
2021/04/17 03:40:10;;;;;;;20.48;12.27;;;;;;;;;;5054901;28;20056;-62
2021/04/17 03:42:55;;;;;;;25.90;13.10;;;;;;;;;;5055055;28;20511;-63
2021/04/17 03:45:40;;;;;;;22.13;12.35;;;;;;;;;;5055254;28;20136;-63
2021/04/17 03:48:26;;;;;;;24.52;15.25;;;;;;;;;;5055121;28;20091;-64
2021/04/17 03:51:11;;;;;;;19.38;14.18;;;;;;;;;;5054583;28;20037;-64
2021/04/17 03:53:57;;;;;;;23.13;15.52;;;;;;;;;;5054958;28;20037;-63
2021/04/17 03:56:42;;;;;;;32.78;16.98;;;;;;;;;;5054932;28;20124;-64
2021/04/17 03:59:28;;;;;;;24.30;15.95;;;;;;;;;;5039737;28;20053;-63
2021/04/17 04:02:13;;;;;;;24.38;15.75;;;;;;;;;;5054702;28;20037;-63
2021/04/17 04:04:58;;;;;;;24.95;14.25;;;;;;;;;;5054797;28;20041;-63
2021/04/17 04:07:44;;;;;;;22.50;14.27;;;;;;;;;;5054652;28;20045;-63
2021/04/17 04:10:29;;;;;;;20.48;13.18;;;;;;;;;;5054466;28;20041;-63
2021/04/17 04:13:15;;;;;;;19.65;12.25;;;;;;;;;;5054467;28;20049;-63
2021/04/17 04:16:00;;;;;;;25.10;13.73;;;;;;;;;;5054630;28;20041;-63
2021/04/17 04:18:45;;;;;;;20.05;13.25;;;;;;;;;;5054563;28;20592;-63
2021/04/17 04:21:30;;;;;;;18.27;12.25;;;;;;;;;;5054152;28;20049;-63
2021/04/17 04:24:16;;;;;;;27.90;11.80;;;;;;;;;;5054446;28;20049;-62
2021/04/17 04:27:01;;;;;;;18.95;10.82;;;;;;;;;;5054325;28;20045;-62
2021/04/17 04:29:46;;;;;;;18.48;11.73;;;;;;;;;;5053130;28;20410;-62
2021/04/17 04:32:31;;;;;;;22.83;12.88;;;;;;;;;;5053990;28;20522;-64
2021/04/17 04:35:17;;;;;;;20.67;10.75;;;;;;;;;;5054257;28;20411;-63
2021/04/17 04:38:02;;;;;;;20.42;10.20;;;;;;;;;;5053050;28;20494;-64
2021/04/17 04:40:47;;;;;;;19.48;10.60;;;;;;;;;;5054114;28;20143;-64
2021/04/17 04:43:33;;;;;;;22.00;11.50;;;;;;;;;;5054035;28;20091;-63
2021/04/17 04:46:18;;;;;;;18.13;9.52;;;;;;;;;;5053964;28;20040;-63
2021/04/17 04:49:03;;;;;;;18.23;10.90;;;;;;;;;;5054057;28;20068;-63
2021/04/17 04:51:49;;;;;;;18.60;9.90;;;;;;;;;;5053752;28;20041;-64
2021/04/17 04:54:34;;;;;;;20.60;11.18;;;;;;;;;;5053542;28;20052;-63
2021/04/17 04:57:19;;;;;;;14.73;9.95;;;;;;;;;;5053858;28;20494;-64
2021/04/17 05:00:06;;;;;;;24.58;10.45;;;;;;;;;;5053694;28;20048;-64
2021/04/17 05:02:51;;;;;;;18.23;9.82;;;;;;;;;;5096291;22;20052;-63
2021/04/17 05:05:36;;;;;;;17.92;9.80;;;;;;;;;;5054085;28;20406;-64
2021/04/17 05:08:22;;;;;;;21.27;8.50;;;;;;;;;;5054528;28;20052;-64
2021/04/17 05:11:07;;;;;;;23.17;11.02;;;;;;;;;;5053965;28;20049;-64
2021/04/17 05:13:53;;;;;;;29.88;9.90;;;;;;;;;;5053831;28;20384;-64
2021/04/17 05:16:38;;;;;;;25.58;10.75;;;;;;;;;;5054051;28;20047;-64
2021/04/17 05:19:25;;;;;;;32.35;9.32;;;;;;;;;;5053434;28;20079;-64
2021/04/17 05:22:10;;;;;;;19.40;8.85;;;;;;;;;;5053571;28;20049;-64
2021/04/17 05:24:55;;;;;;;15.23;8.63;;;;;;;;;;5054195;28;20068;-64
2021/04/17 05:27:41;;;;;;;17.02;8.82;;;;;;;;;;5053829;28;20076;-64
2021/04/17 05:30:26;;;;;;;20.52;9.10;;;;;;;;;;5053469;28;20041;-64
2021/04/17 05:33:12;;;;;;;14.52;7.78;;;;;;;;;;5053560;28;20049;-64
2021/04/17 05:35:57;;;;;;;19.00;8.15;;;;;;;;;;5053605;28;20045;-64
2021/04/17 05:38:42;;;;;;;17.30;7.80;;;;;;;;;;5053539;28;20040;-64
2021/04/17 05:41:28;;;;;;;15.65;7.65;;;;;;;;;;5053362;28;20487;-64
2021/04/17 05:44:13;;;;;;;19.42;7.57;;;;;;;;;;5053127;28;20130;-64
2021/04/17 05:46:58;;;;;;;17.23;7.57;;;;;;;;;;5052339;28;20045;-64
2021/04/17 05:49:44;;;;;;;19.30;7.60;;;;;;;;;;5053032;28;20190;-64
2021/04/17 05:52:30;;;;;;;15.05;7.47;;;;;;;;;;5052785;28;20045;-63
2021/04/17 05:55:15;;;;;;;15.98;6.65;;;;;;;;;;5052475;28;20033;-64
2021/04/17 05:58:01;;;;;;;16.45;6.28;;;;;;;;;;5052772;28;20525;-64
2021/04/17 06:00:46;;;;;;;17.45;6.25;;;;;;;;;;5053063;28;20052;-64
2021/04/17 06:03:32;;;;;;;20.00;9.48;;;;;;;;;;5052548;28;20408;-63
2021/04/17 06:06:17;;;;;;;26.33;7.60;;;;;;;;;;5033212;28;20403;-64
2021/04/17 06:09:02;;;;;;;23.20;7.07;;;;;;;;;;5042982;28;20037;-64
2021/04/17 06:11:48;;;;;;;17.77;6.63;;;;;;;;;;5052950;28;20449;-64
2021/04/17 06:14:33;;;;;;;27.05;6.47;;;;;;;;;;5052373;28;20049;-64
2021/04/17 06:17:19;;;;;;;15.95;5.57;;;;;;;;;;5052434;28;20053;-64
2021/04/17 06:20:04;;;;;;;16.80;6.32;;;;;;;;;;5051943;28;20045;-64
2021/04/17 06:22:50;;;;;;;20.02;7.03;;;;;;;;;;5051907;28;20479;-64
2021/04/17 06:25:36;;;;;;;19.20;5.75;;;;;;;;;;5052156;28;20049;-64
2021/04/17 06:28:21;;;;;;;16.67;5.32;;;;;;;;;;5052069;28;20498;-64
2021/04/17 06:31:06;;;;;;;14.85;6.00;;;;;;;;;;5051656;28;20076;-64
2021/04/17 06:33:52;;;;;;;17.88;5.30;;;;;;;;;;5051754;28;20037;-64
2021/04/17 06:36:37;;;;;;;9.75;4.00;;;;;;;;;;5051870;28;20041;-64
2021/04/17 06:39:22;;;;;;;12.80;4.70;;;;;;;;;;5051926;28;20076;-64
2021/04/17 06:42:10;;;;;;;13.23;4.47;;;;;;;;;;5051925;28;20526;-64
2021/04/17 06:44:55;;;;;;;10.82;3.55;;;;;;;;;;5051002;28;20040;-64
2021/04/17 06:47:43;;;;;;;12.13;4.50;;;;;;;;;;5058051;28;20045;-64
2021/04/17 06:50:28;;;;;;;19.40;5.18;;;;;;;;;;5051484;28;20041;-64
2021/04/17 06:53:13;;;;;;;9.07;3.45;;;;;;;;;;5051802;28;20076;-64
2021/04/17 06:55:59;;;;;;;13.82;3.67;;;;;;;;;;5050819;28;20049;-64
2021/04/17 06:58:45;;;;;;;12.05;4.00;;;;;;;;;;5050379;28;20048;-64
2021/04/17 07:01:30;;;;;;;13.98;5.15;;;;;;;;;;5052445;28;20048;-64
2021/04/17 07:04:15;;;;;;;11.90;3.78;;;;;;;;;;5060167;28;20069;-64
2021/04/17 07:07:02;;;;;;;14.23;3.70;;;;;;;;;;5055716;28;20041;-64
2021/04/17 07:09:47;;;;;;;20.45;6.20;;;;;;;;;;5055688;28;20041;-64
2021/04/17 07:12:32;;;;;;;14.40;4.40;;;;;;;;;;5040629;28;20418;-64
2021/04/17 07:15:18;;;;;;;17.42;3.95;;;;;;;;;;5055030;28;20041;-64
2021/04/17 07:18:22;;;;;;;17.02;5.78;;;;;;;;;;5055577;28;20045;-63
2021/04/17 07:21:17;;;;;;;18.00;4.25;;;;;;;;;;5055564;28;20045;-63
2021/04/17 07:24:02;;;;;;;17.10;3.95;;;;;;;;;;5055608;28;20049;-64
2021/04/17 07:26:47;;;;;;;14.77;4.10;;;;;;;;;;5055546;28;20053;-63
2021/04/17 07:29:40;;;;;;;14.30;3.67;;;;;;;;;;5054864;28;20045;-64
2021/04/17 07:32:25;;;;;;;13.50;3.55;;;;;;;;;;5055410;28;20415;-64
2021/04/17 07:35:12;;;;;;;14.30;3.20;;;;;;;;;;5055340;28;20052;-64
2021/04/17 07:38:17;;;;;;;13.20;4.05;;;;;;;;;;5055513;28;20044;-64
2021/04/17 07:41:09;;;;;;;8.18;3.40;;;;;;;;;;5051932;28;20183;-64
2021/04/17 07:43:55;;;;;;;12.15;3.65;;;;;;;;;;5052729;28;20489;-64
2021/04/17 07:46:41;;;;;;;14.25;3.20;;;;;;;;;;5055376;28;20063;-64
2021/04/17 07:49:27;;;;;;;14.95;3.38;;;;;;;;;;5054668;28;20041;-64
2021/04/17 07:52:13;;;;;;;12.50;3.90;;;;;;;;;;5054984;28;20049;-63
2021/04/17 07:55:01;;;;;;;14.85;3.95;;;;;;;;;;5055301;28;20049;-63
2021/04/17 07:57:56;;;;;;;11.90;3.42;;;;;;;;;;5056150;28;20484;-64
2021/04/17 08:00:41;;;;;;;13.85;3.75;;;;;;;;;;5055316;28;20053;-64
2021/04/17 08:03:27;;;;;;;12.20;3.40;;;;;;;;;;5055777;28;20049;-64
2021/04/17 08:06:13;;;;;;;10.30;3.22;;;;;;;;;;5056499;28;20041;-63
2021/04/17 08:08:58;;;;;;;12.70;2.92;;;;;;;;;;5069315;28;20049;-64
2021/04/17 08:11:45;;;;;;;9.90;3.70;;;;;;;;;;5054580;28;20045;-64
2021/04/17 08:14:30;;;;;;;11.18;3.22;;;;;;;;;;5054521;28;20067;-64
2021/04/17 08:17:16;;;;;;;10.30;2.85;;;;;;;;;;5039355;28;20060;-64
2021/04/17 08:20:01;;;;;;;10.23;3.63;;;;;;;;;;5053602;28;20056;-63
2021/04/17 08:22:49;;;;;;;7.40;3.58;;;;;;;;;;5055494;28;20495;-64
2021/04/17 08:25:35;;;;;;;12.43;3.75;;;;;;;;;;5054440;28;20045;-64
2021/04/17 08:28:21;;;;;;;8.45;3.20;;;;;;;;;;5054011;28;20483;-64
2021/04/17 08:31:30;;;;;;;10.93;3.72;;;;;;;;;;5054080;28;20653;-64
2021/04/17 08:34:22;;;;;;;22.48;4.85;;;;;;;;;;5054044;28;20049;-64
2021/04/17 08:37:07;;;;;;;7.75;2.78;;;;;;;;;;5054479;28;20052;-64
2021/04/17 08:39:55;;;;;;;7.95;3.22;;;;;;;;;;5053471;28;20128;-64
2021/04/17 08:42:46;;;;;;;12.57;2.95;;;;;;;;;;5054068;28;20110;-63
2021/04/17 08:45:30;;;;;;;16.90;3.95;;;;;;;;;;5053600;28;20453;-63
2021/04/17 08:48:16;;;;;;;8.88;3.67;;;;;;;;;;5053649;28;20045;-63
2021/04/17 08:51:21;;;;;;;7.63;3.10;;;;;;;;;;5052834;28;20073;-63
2021/04/17 08:54:08;;;;;;;7.72;2.63;;;;;;;;;;5053658;28;20499;-63
2021/04/17 08:56:57;;;;;;;9.63;2.97;;;;;;;;;;5053758;28;20045;-63
2021/04/17 08:59:43;;;;;;;10.80;3.20;;;;;;;;;;5053265;28;20052;-63
2021/04/17 09:02:29;;;;;;;5.25;2.58;;;;;;;;;;5053614;28;20049;-63
2021/04/17 09:05:15;;;;;;;6.72;2.85;;;;;;;;;;5053405;28;20045;-63
2021/04/17 09:08:14;;;;;;;10.35;3.13;;;;;;;;;;5053758;28;20041;-63
2021/04/17 09:10:59;;;;;;;5.18;2.22;;;;;;;;;;5053031;28;20052;-63
2021/04/17 09:13:45;;;;;;;11.38;3.22;;;;;;;;;;5053648;28;20045;-63
2021/04/17 09:16:39;;;;;;;10.77;2.85;;;;;;;;;;5060895;28;20049;-64
2021/04/17 09:19:41;;;;;;;6.13;2.45;;;;;;;;;;5053347;28;20087;-63
2021/04/17 09:22:34;;;;;;;8.48;3.10;;;;;;;;;;5051018;28;20052;-63
2021/04/17 09:25:36;;;;;;;4.88;2.08;;;;;;;;;;5052090;28;20049;-63
2021/04/17 09:28:21;;;;;;;7.63;2.78;;;;;;;;;;5053170;28;20040;-63
2021/04/17 09:31:06;;;;;;;13.15;2.65;;;;;;;;;;5051724;28;20044;-63
2021/04/17 09:34:01;;;;;;;7.63;2.42;;;;;;;;;;5053116;28;20049;-63
2021/04/17 09:36:49;;;;;;;6.93;4.30;;;;;;;;;;5052892;28;20037;-63
2021/04/17 09:39:34;;;;;;;4.70;1.83;;;;;;;;;;5052580;28;20155;-63
2021/04/17 09:42:29;;;;;;;5.72;2.28;;;;;;;;;;5052641;28;20112;-63
2021/04/17 09:45:15;;;;;;;4.57;2.97;;;;;;;;;;5053109;28;20045;-63
2021/04/17 09:48:00;;;;;;;5.68;2.58;;;;;;;;;;5060092;28;20045;-63
2021/04/17 09:50:46;;;;;;;4.10;1.95;;;;;;;;;;5052630;28;20119;-63
2021/04/17 09:53:32;;;;;;;5.22;2.65;;;;;;;;;;5052037;28;20040;-63
2021/04/17 09:56:27;;;;;;;9.60;2.33;;;;;;;;;;5052803;28;20041;-63
2021/04/17 09:59:13;;;;;;;8.05;2.90;;;;;;;;;;5052572;28;20060;-63
2021/04/17 10:01:59;;;;;;;4.88;2.42;;;;;;;;;;5052464;28;20073;-63
2021/04/17 10:04:48;;;;;;;6.88;2.45;;;;;;;;;;5052136;28;20045;-63
2021/04/17 10:07:45;;;;;;;7.18;2.42;;;;;;;;;;5052471;28;20047;-63
2021/04/17 10:10:36;;;;;;;4.55;1.88;;;;;;;;;;5052257;28;20041;-63
2021/04/17 10:13:40;;;;;;;5.00;2.22;;;;;;;;;;5052174;28;20131;-63
2021/04/17 10:16:26;;;;;;;4.80;1.52;;;;;;;;;;5052513;28;20080;-63
2021/04/17 10:19:13;;;;;;;4.22;1.73;;;;;;;;;;5052045;28;20044;-63
2021/04/17 10:22:00;;;;;;;5.03;2.67;;;;;;;;;;5052204;28;20048;-63
2021/04/17 10:24:45;;;;;;;5.20;2.03;;;;;;;;;;5052038;28;20434;-63
2021/04/17 10:27:34;;;;;;;6.25;1.98;;;;;;;;;;5052306;28;20049;-64
2021/04/17 10:30:20;;;;;;;5.45;1.88;;;;;;;;;;5044392;28;20442;-63
2021/04/17 10:33:12;;;;;;;6.97;2.20;;;;;;;;;;5052137;28;20044;-63
2021/04/17 10:35:58;;;;;;;4.82;2.00;;;;;;;;;;5051122;28;20045;-63
2021/04/17 10:38:43;;;;;;;7.68;2.90;;;;;;;;;;5051747;28;20045;-64
2021/04/17 10:41:29;;;;;;;4.50;1.77;;;;;;;;;;5051545;28;20037;-64
2021/04/17 10:44:15;;;;;;;4.65;2.25;;;;;;;;;;5052058;28;20132;-64
2021/04/17 10:47:02;;;;;;;8.05;2.40;;;;;;;;;;5017172;28;20053;-64
2021/04/17 10:49:47;;;;;;;5.95;1.98;;;;;;;;;;5034713;28;20041;-64
2021/04/17 10:52:33;;;;;;;3.03;1.17;;;;;;;;;;5050916;28;20049;-64
2021/04/17 10:55:29;;;;;;;3.42;1.35;;;;;;;;;;5051250;28;20175;-64
2021/04/17 10:58:21;;;;;;;4.68;1.75;;;;;;;;;;5051752;28;20045;-63
2021/04/17 11:01:10;;;;;;;7.47;2.47;;;;;;;;;;5051545;28;20048;-64
2021/04/17 11:03:59;;;;;;;4.32;1.67;;;;;;;;;;5094453;22;20087;-63
2021/04/17 11:06:48;;;;;;;3.67;1.52;;;;;;;;;;5051490;28;20052;-63
2021/04/17 11:09:34;;;;;;;3.13;1.50;;;;;;;;;;5051242;28;20128;-63
2021/04/17 11:12:26;;;;;;;6.35;1.58;;;;;;;;;;5050565;28;20049;-64
2021/04/17 11:15:17;;;;;;;4.10;1.60;;;;;;;;;;5038997;28;20037;-63
2021/04/17 11:18:12;;;;;;;3.83;1.83;;;;;;;;;;5051022;28;20406;-63
2021/04/17 11:20:58;;;;;;;6.30;1.88;;;;;;;;;;5051219;28;20041;-63
2021/04/17 11:23:47;;;;;;;4.32;1.70;;;;;;;;;;5051501;28;20045;-63
2021/04/17 11:26:33;;;;;;;6.13;1.50;;;;;;;;;;5051557;28;20045;-63
2021/04/17 11:29:18;;;;;;;3.20;1.40;;;;;;;;;;5051294;28;20045;-63
2021/04/17 11:32:04;;;;;;;2.80;1.48;;;;;;;;;;5051477;28;20049;-63
2021/04/17 11:34:51;;;;;;;8.18;1.42;;;;;;;;;;5051090;28;20041;-63
2021/04/17 11:37:36;;;;;;;3.95;1.48;;;;;;;;;;5051430;28;20041;-63
2021/04/17 11:40:21;;;;;;;6.47;2.97;;;;;;;;;;5051005;28;20056;-62
2021/04/17 11:43:06;;;;;;;6.28;1.92;;;;;;;;;;5051353;28;20049;-63
2021/04/17 11:45:52;;;;;;;5.00;1.70;;;;;;;;;;5047274;28;20048;-62
2021/04/17 11:48:39;;;;;;;5.07;1.60;;;;;;;;;;5053609;28;20037;-63
2021/04/17 11:51:24;;;;;;;6.53;1.85;;;;;;;;;;5054365;28;20518;-63
2021/04/17 11:54:09;;;;;;;3.58;1.70;;;;;;;;;;5054789;28;20048;-63
2021/04/17 11:56:55;;;;;;;3.80;1.73;;;;;;;;;;5054351;28;20402;-62
2021/04/17 11:59:40;;;;;;;3.10;1.40;;;;;;;;;;5054203;28;20127;-62
2021/04/17 12:02:26;;;;;;;7.28;1.42;;;;;;;;;;5044845;28;20056;-63
2021/04/17 12:05:11;;;;;;;5.60;1.67;;;;;;;;;;5054239;28;20041;-63
2021/04/17 12:07:57;;;;;;;2.60;1.30;;;;;;;;;;5054392;28;20049;-62
2021/04/17 12:10:42;;;;;;;4.75;1.63;;;;;;;;;;5053829;28;20116;-62
2021/04/17 12:13:28;;;;;;;3.85;2.10;;;;;;;;;;5053882;28;20041;-62
2021/04/17 12:16:13;;;;;;;4.45;1.77;;;;;;;;;;5052458;28;20041;-62
2021/04/17 12:18:58;;;;;;;4.47;2.17;;;;;;;;;;5054150;28;20055;-62
2021/04/17 12:21:44;;;;;;;9.10;2.47;;;;;;;;;;5050219;28;20045;-63
2021/04/17 12:24:30;;;;;;;4.57;2.08;;;;;;;;;;5051805;28;20495;-63
2021/04/17 12:27:15;;;;;;;5.95;1.90;;;;;;;;;;5053818;28;20124;-62
2021/04/17 12:30:00;;;;;;;4.70;1.67;;;;;;;;;;5051696;28;20040;-63
2021/04/17 12:32:46;;;;;;;5.65;2.20;;;;;;;;;;5053616;28;20064;-62
2021/04/17 12:35:31;;;;;;;5.68;2.00;;;;;;;;;;5053437;28;20045;-63
2021/04/17 12:38:16;;;;;;;5.05;1.38;;;;;;;;;;5053949;28;20514;-62
2021/04/17 12:41:01;;;;;;;4.20;1.35;;;;;;;;;;5053505;28;20068;-63
2021/04/17 12:43:47;;;;;;;4.05;1.50;;;;;;;;;;5053643;28;20406;-63
2021/04/17 12:46:32;;;;;;;3.83;1.92;;;;;;;;;;5053953;28;20051;-64
2021/04/17 12:49:17;;;;;;;5.03;1.48;;;;;;;;;;5053577;28;20037;-62
2021/04/17 12:52:03;;;;;;;4.18;1.77;;;;;;;;;;5053414;28;20076;-63
2021/04/17 12:54:48;;;;;;;3.45;1.33;;;;;;;;;;5054011;28;20414;-62
2021/04/17 12:57:33;;;;;;;6.97;1.50;;;;;;;;;;5033931;28;20049;-63
2021/04/17 13:00:19;;;;;;;5.35;1.33;;;;;;;;;;5049144;28;20045;-62
2021/04/17 13:03:04;;;;;;;4.15;1.50;;;;;;;;;;5053332;28;20045;-62
2021/04/17 13:05:49;;;;;;;3.00;1.25;;;;;;;;;;5053410;28;20068;-62
2021/04/17 13:08:34;;;;;;;5.38;1.52;;;;;;;;;;5053469;28;20048;-62
2021/04/17 13:11:20;;;;;;;4.85;1.45;;;;;;;;;;5052819;28;20064;-62
2021/04/17 13:14:05;;;;;;;3.10;1.50;;;;;;;;;;5051763;28;20076;-62
2021/04/17 13:16:51;;;;;;;8.77;1.67;;;;;;;;;;5053413;28;20045;-63
2021/04/17 13:19:36;;;;;;;3.13;1.30;;;;;;;;;;5033376;28;20049;-62
2021/04/17 13:22:21;;;;;;;3.92;2.00;;;;;;;;;;5037703;28;20074;-62
2021/04/17 13:25:07;;;;;;;3.13;1.60;;;;;;;;;;5039213;28;20503;-62
2021/04/17 13:27:53;;;;;;;2.10;1.08;;;;;;;;;;5053220;28;20049;-62
2021/04/17 13:30:38;;;;;;;7.95;2.00;;;;;;;;;;5051922;28;20041;-62
2021/04/17 13:33:23;;;;;;;3.05;1.48;;;;;;;;;;5052775;28;20056;-62
2021/04/17 13:36:09;;;;;;;2.63;1.42;;;;;;;;;;5053309;28;20049;-63
2021/04/17 13:38:54;;;;;;;3.22;1.40;;;;;;;;;;5052914;28;20048;-62
2021/04/17 13:41:39;;;;;;;2.65;1.05;;;;;;;;;;5052649;28;20056;-62
2021/04/17 13:44:24;;;;;;;5.13;1.60;;;;;;;;;;5044540;28;20049;-62
2021/04/17 13:47:10;;;;;;;4.72;1.15;;;;;;;;;;5052922;28;20040;-62
2021/04/17 13:49:55;;;;;;;1.65;0.98;;;;;;;;;;5052263;28;20049;-62
2021/04/17 13:52:40;;;;;;;3.25;1.38;;;;;;;;;;5052166;28;20487;-62
2021/04/17 13:55:26;;;;;;;3.67;1.20;;;;;;;;;;5052403;28;20064;-62
2021/04/17 13:58:11;;;;;;;7.75;1.50;;;;;;;;;;5052785;28;20044;-62
2021/04/17 14:00:57;;;;;;;3.65;1.48;;;;;;;;;;5052101;28;20045;-62
2021/04/17 14:03:42;;;;;;;5.40;1.60;;;;;;;;;;5052195;28;20033;-63
2021/04/17 14:06:27;;;;;;;2.75;1.50;;;;;;;;;;5049875;28;20048;-62
2021/04/17 14:09:12;;;;;;;5.43;1.77;;;;;;;;;;5052005;28;20045;-63
2021/04/17 14:11:58;;;;;;;3.17;1.50;;;;;;;;;;5052329;28;20041;-62
2021/04/17 14:14:43;;;;;;;4.78;1.63;;;;;;;;;;5052096;28;20045;-63
2021/04/17 14:17:29;;;;;;;7.68;1.58;;;;;;;;;;5052235;28;20067;-63
2021/04/17 14:20:14;;;;;;;3.88;2.22;;;;;;;;;;5051598;28;20499;-63
2021/04/17 14:22:59;;;;;;;3.65;1.30;;;;;;;;;;5052185;28;20049;-62
2021/04/17 14:25:45;;;;;;;3.05;1.67;;;;;;;;;;5035298;28;20036;-62
2021/04/17 14:28:31;;;;;;;3.58;1.35;;;;;;;;;;5051795;28;20037;-62
2021/04/17 14:31:16;;;;;;;3.85;1.70;;;;;;;;;;5051952;28;20044;-62
2021/04/17 14:34:02;;;;;;;3.58;1.23;;;;;;;;;;5051791;28;20041;-63
2021/04/17 14:36:47;;;;;;;3.92;1.27;;;;;;;;;;5052280;28;20045;-62
2021/04/17 14:39:32;;;;;;;2.85;1.33;;;;;;;;;;5051159;28;20045;-62
2021/04/17 14:42:18;;;;;;;4.13;1.42;;;;;;;;;;5048553;28;20414;-62
2021/04/17 14:45:05;;;;;;;3.53;2.20;;;;;;;;;;5049140;28;20044;-62
2021/04/17 14:47:50;;;;;;;4.75;1.80;;;;;;;;;;5051516;28;20041;-62
2021/04/17 14:50:35;;;;;;;2.55;1.10;;;;;;;;;;5050241;28;20127;-62
2021/04/17 14:53:21;;;;;;;5.80;2.67;;;;;;;;;;5051749;28;20494;-62
2021/04/17 14:56:08;;;;;;;3.13;1.40;;;;;;;;;;5051677;28;20108;-62
2021/04/17 14:58:54;;;;;;;6.78;1.80;;;;;;;;;;5052118;28;20506;-62
2021/04/17 15:01:40;;;;;;;4.70;1.85;;;;;;;;;;5051447;28;20040;-62
2021/04/17 15:04:25;;;;;;;3.97;1.58;;;;;;;;;;5050633;28;20503;-62
2021/04/17 15:07:10;;;;;;;3.20;1.15;;;;;;;;;;5051523;28;20069;-62
2021/04/17 15:09:55;;;;;;;3.42;1.67;;;;;;;;;;5051387;28;20045;-62
2021/04/17 15:12:40;;;;;;;3.35;1.40;;;;;;;;;;5051079;28;20041;-62
2021/04/17 15:15:26;;;;;;;6.53;1.48;;;;;;;;;;5050634;28;20132;-62
2021/04/17 15:18:11;;;;;;;3.22;1.55;;;;;;;;;;5051165;28;20037;-62
2021/04/17 15:20:57;;;;;;;2.90;1.08;;;;;;;;;;5051293;28;20132;-62
2021/04/17 15:23:42;;;;;;;4.13;1.70;;;;;;;;;;5054363;28;20044;-62
2021/04/17 15:26:28;;;;;;;6.75;1.63;;;;;;;;;;5055301;28;20049;-62
2021/04/17 15:29:13;;;;;;;1.27;0.73;;;;;;;;;;5055260;28;20036;-62
2021/04/17 15:31:59;;;;;;;1.60;0.80;;;;;;;;;;5054998;28;20395;-62
2021/04/17 15:34:45;;;;;;;5.65;1.42;;;;;;;;;;5045285;28;20044;-62
2021/04/17 15:37:30;;;;;;;3.53;1.00;;;;;;;;;;5055142;28;20041;-63
2021/04/17 15:40:16;;;;;;;3.85;1.48;;;;;;;;;;5055018;28;20615;-61
2021/04/17 15:43:02;;;;;;;3.90;1.17;;;;;;;;;;5051103;28;20433;-61
2021/04/17 15:45:47;;;;;;;5.30;0.80;;;;;;;;;;5052284;28;20096;-61
2021/04/17 15:48:34;;;;;;;8.75;1.60;;;;;;;;;;5050693;28;20120;-62
2021/04/17 15:51:19;;;;;;;3.65;1.30;;;;;;;;;;5044107;28;20041;-61
2021/04/17 15:54:05;;;;;;;3.25;1.00;;;;;;;;;;5048800;28;20049;-61
2021/04/17 15:58:09;;;;;;;5.28;1.13;;;;;;;;;;5042979;28;20045;-61
2021/04/17 16:14:17;;;;;;;3.95;0.98;;;;;;;;;;5048428;28;20044;-62
2021/04/17 16:15:44;;;;;;;8.73;2.13;;;;;;;;;;5047596;28;20040;-61
2021/04/17 16:18:29;;;;;;;3.22;0.77;;;;;;;;;;5052535;28;20052;-62
2021/04/17 16:21:15;;;;;;;3.15;0.90;;;;;;;;;;5052313;28;20067;-62
2021/04/17 16:24:00;;;;;;;2.05;0.90;;;;;;;;;;5051807;28;20132;-62
2021/04/17 16:26:45;;;;;;;3.45;1.00;;;;;;;;;;5051324;28;20049;-61
2021/04/17 16:29:35;;;;;;;4.10;0.77;;;;;;;;;;5046856;28;20049;-62
2021/04/17 16:32:20;;;;;;;3.28;0.70;;;;;;;;;;5052453;28;20045;-61
2021/04/17 16:35:08;;;;;;;3.38;1.33;;;;;;;;;;5051093;28;20049;-62
2021/04/17 16:37:53;;;;;;;4.45;1.30;;;;;;;;;;5053181;28;20053;-62
2021/04/17 16:40:38;;;;;;;4.03;1.35;;;;;;;;;;5053857;28;20507;-63